Time;durP1;ratioP1;P1;durP2;ratioP2;P2;SDS_P1;SDS_P2;PMS_P1;PMS_P2;Temp;Humidity;BMP_temperature;BMP_pressure;BME280_temperature;BME280_humidity;BME280_pressure;Samples;Min_cycle;Max_cycle;Signal;HPM_P1;HPM_P2
2023/09/05 00:00:10;;;;;;;7.82;5.25;;;14.90;1.00;;;;;;4944356;28;20059;-91
2023/09/05 00:02:47;;;;;;;6.00;5.38;;;15.00;1.00;;;;;;4943579;28;20133;-92
2023/09/05 00:05:19;;;;;;;5.97;5.43;;;15.90;1.00;;;;;;4960482;28;20097;-91
2023/09/05 00:07:45;;;;;;;5.78;5.28;;;15.70;1.00;;;;;;4959780;28;20051;-91
2023/09/05 00:10:12;;;;;;;6.30;5.70;;;15.80;1.00;;;;;;4943356;28;20113;-92
2023/09/05 00:12:42;;;;;;;6.63;5.38;;;15.20;1.00;;;;;;4943579;28;20057;-91
2023/09/05 00:15:13;;;;;;;6.97;5.95;;;15.70;1.00;;;;;;4943537;28;20042;-91
2023/09/05 00:17:44;;;;;;;6.40;5.70;;;15.90;1.00;;;;;;4928260;28;20046;-91
2023/09/05 00:20:15;;;;;;;7.30;6.05;;;15.70;1.00;;;;;;4960438;28;20046;-92
2023/09/05 00:22:42;;;;;;;6.32;5.70;;;15.70;1.00;;;;;;4943721;28;20478;-91
2023/09/05 00:25:11;;;;;;;7.25;6.55;;;15.60;1.00;;;;;;4928334;28;20046;-91
2023/09/05 00:27:40;;;;;;;9.82;6.93;;;15.70;1.00;;;;;;4943354;28;20055;-91
2023/09/05 00:30:06;;;;;;;7.03;6.22;;;15.60;1.00;;;;;;4943756;28;20051;-91
2023/09/05 00:32:33;;;;;;;;;;;15.60;1.00;;;;;;4927831;28;20058;-91
2023/09/05 00:34:58;;;;;;;8.82;6.88;;;15.50;1.00;;;;;;4943294;28;20086;-91
2023/09/05 00:37:26;;;;;;;6.73;6.10;;;15.40;1.00;;;;;;4942695;28;20162;-91
2023/09/05 00:39:55;;;;;;;7.22;6.53;;;15.40;1.00;;;;;;4959454;28;20301;-91
2023/09/05 00:42:23;;;;;;;7.47;6.78;;;15.50;1.00;;;;;;4943826;28;20529;-91
2023/09/05 00:44:51;;;;;;;7.35;6.43;;;15.40;1.00;;;;;;4927923;28;20046;-91
2023/09/05 00:47:17;;;;;;;7.60;6.90;;;15.50;1.00;;;;;;4958786;28;20047;-91
2023/09/05 00:49:50;;;;;;;6.70;6.15;;;15.50;1.00;;;;;;4943309;28;20532;-91
2023/09/05 00:52:18;;;;;;;7.45;6.75;;;15.40;1.00;;;;;;4928021;28;20050;-92
2023/09/05 00:54:44;;;;;;;7.15;6.43;;;15.30;1.00;;;;;;4958419;28;20509;-91
2023/09/05 00:57:14;;;;;;;8.20;7.40;;;15.40;1.00;;;;;;4959420;28;20047;-91
2023/09/05 00:59:44;;;;;;;7.47;6.47;;;15.40;1.00;;;;;;4958731;28;20072;-91
2023/09/05 01:02:10;;;;;;;7.03;6.25;;;14.80;1.00;;;;;;4958440;28;20046;-91
2023/09/05 01:04:36;;;;;;;6.95;6.25;;;15.40;1.00;;;;;;4942956;28;20110;-92
2023/09/05 01:07:08;;;;;;;7.47;6.78;;;15.30;1.00;;;;;;4959201;28;20050;-91
2023/09/05 01:09:52;;;;;;;7.38;6.60;;;15.30;1.00;;;;;;4958087;28;20093;-91
2023/09/05 01:12:19;;;;;;;8.05;7.05;;;15.30;1.00;;;;;;4959152;28;20043;-91
2023/09/05 01:14:44;;;;;;;9.32;5.70;;;15.20;1.00;;;;;;4925775;28;20047;-91
2023/09/05 01:17:10;;;;;;;6.95;6.22;;;15.20;1.00;;;;;;4926564;28;20047;-91
2023/09/05 01:19:40;;;;;;;6.80;5.75;;;15.10;1.00;;;;;;4942318;28;20097;-90
2023/09/05 01:22:28;;;;;;;6.43;5.82;;;15.00;1.00;;;;;;4942349;28;20053;-91
2023/09/05 01:24:53;;;;;;;5.88;5.38;;;14.30;1.00;;;;;;4958613;28;20068;-92
2023/09/05 01:27:22;;;;;;;7.25;5.78;;;15.00;1.00;;;;;;4942593;28;20118;-91
2023/09/05 01:29:49;;;;;;;6.45;5.60;;;14.90;1.00;;;;;;4941694;28;20481;-90
2023/09/05 01:32:16;;;;;;;6.53;5.55;;;14.80;1.00;;;;;;4942360;28;20108;-90
2023/09/05 01:34:49;;;;;;;7.82;6.53;;;14.60;1.00;;;;;;4957664;28;20046;-91
2023/09/05 01:37:15;;;;;;;6.70;6.10;;;14.20;1.00;;;;;;4942207;28;20047;-91
2023/09/05 01:39:43;;;;;;;7.43;6.15;;;14.70;1.00;;;;;;4958136;28;20137;-91
2023/09/05 01:42:10;;;;;;;7.10;6.43;;;14.70;1.00;;;;;;4942089;28;20054;-91
2023/09/05 01:44:38;;;;;;;6.68;6.07;;;14.60;1.00;;;;;;4941720;28;20502;-90
2023/09/05 01:47:04;;;;;;;6.65;6.03;;;14.60;1.00;;;;;;4958168;28;20104;-91
2023/09/05 01:49:33;;;;;;;8.80;6.20;;;14.70;1.00;;;;;;4942859;28;20046;-91
2023/09/05 01:52:11;;;;;;;;;;;;;;;;;;;;;
2023/09/05 01:54:41;;;;;;;12.75;6.88;;;14.50;1.00;;;;;;4958417;28;20130;-91
2023/09/05 01:57:06;;;;;;;8.82;8.02;;;14.50;1.00;;;;;;4941875;28;20090;-91
2023/09/05 01:59:35;;;;;;;9.57;7.37;;;14.30;1.00;;;;;;4942010;28;20089;-92
2023/09/05 02:02:00;;;;;;;8.45;7.53;;;14.40;1.00;;;;;;4926159;28;20082;-90
2023/09/05 02:04:28;;;;;;;7.07;6.37;;;13.60;1.00;;;;;;4942610;28;20093;-90
2023/09/05 02:06:54;;;;;;;6.80;5.95;;;14.40;1.00;;;;;;4942356;28;20296;-91
2023/09/05 02:09:22;;;;;;;6.85;6.15;;;14.40;1.00;;;;;;4941550;28;20058;-91
2023/09/05 02:11:48;;;;;;;6.82;6.22;;;13.50;1.00;;;;;;4941383;28;20142;-90
2023/09/05 02:14:14;;;;;;;8.07;6.82;;;14.30;1.00;;;;;;4925793;28;20137;-91
2023/09/05 02:16:43;;;;;;;8.27;5.60;;;14.30;1.00;;;;;;4956945;28;20093;-91
2023/09/05 02:19:12;;;;;;;7.55;5.82;;;14.30;1.00;;;;;;4941793;28;20047;-91
2023/09/05 02:21:40;;;;;;;7.10;6.28;;;14.30;1.00;;;;;;4942017;28;20053;-93
2023/09/05 02:24:07;;;;;;;7.18;6.25;;;14.30;1.00;;;;;;4941504;28;20046;-92
2023/09/05 02:26:37;;;;;;;7.38;6.00;;;14.20;1.00;;;;;;4960414;28;20086;-90
2023/09/05 02:29:03;;;;;;;7.00;6.22;;;14.20;1.00;;;;;;4945876;28;20047;-91
2023/09/05 02:31:29;;;;;;;10.48;8.05;;;14.20;1.00;;;;;;4959985;28;20054;-90
2023/09/05 02:33:55;;;;;;;9.15;7.15;;;14.10;1.00;;;;;;4948432;28;20046;-89
2023/09/05 02:36:21;;;;;;;7.95;7.05;;;14.20;1.00;;;;;;4948908;28;20397;-90
2023/09/05 02:38:51;;;;;;;8.60;7.80;;;14.20;1.00;;;;;;4959808;28;20043;-92
2023/09/05 02:41:17;;;;;;;9.02;7.40;;;14.30;1.00;;;;;;4926817;28;20468;-91
2023/09/05 02:43:46;;;;;;;10.23;8.07;;;14.10;1.00;;;;;;4940834;28;20047;-91
2023/09/05 02:46:14;;;;;;;8.50;7.38;;;14.20;1.00;;;;;;4940946;28;20333;-92
2023/09/05 02:48:49;;;;;;;8.38;7.55;;;14.20;1.00;;;;;;4957150;28;20047;-92
2023/09/05 02:51:15;;;;;;;8.75;7.85;;;14.10;1.00;;;;;;4925218;28;20086;-91
2023/09/05 02:53:44;;;;;;;8.63;7.72;;;14.10;1.00;;;;;;4941397;28;20121;-92
2023/09/05 02:56:13;;;;;;;8.07;7.38;;;14.30;1.00;;;;;;4926627;28;20109;-91
2023/09/05 02:58:38;;;;;;;8.65;7.85;;;14.10;1.00;;;;;;4941505;28;20432;-91
2023/09/05 03:01:10;;;;;;;8.70;7.60;;;14.10;1.00;;;;;;4940745;28;20143;-91
2023/09/05 03:03:38;;;;;;;10.35;7.97;;;14.20;1.00;;;;;;4957286;28;20294;-91
2023/09/05 03:06:15;;;;;;;9.73;7.72;;;14.10;1.00;;;;;;4956575;28;20047;-91
2023/09/05 03:08:44;;;;;;;9.82;8.43;;;14.20;1.00;;;;;;4957242;28;20051;-91
2023/09/05 03:11:10;;;;;;;10.50;9.40;;;14.20;1.00;;;;;;4940469;28;20070;-91
2023/09/05 03:13:36;;;;;;;11.60;9.65;;;14.20;1.00;;;;;;4957162;28;20457;-92
2023/09/05 03:16:02;;;;;;;9.55;7.90;;;14.20;1.00;;;;;;4956518;28;20043;-92
2023/09/05 03:18:28;;;;;;;8.75;7.75;;;14.30;1.00;;;;;;4957187;28;20449;-92
2023/09/05 03:20:53;;;;;;;10.77;9.50;;;14.20;1.00;;;;;;4925192;28;20054;-91
2023/09/05 03:23:23;;;;;;;9.33;8.40;;;14.20;1.00;;;;;;4925311;28;20047;-91
2023/09/05 03:25:52;;;;;;;10.45;9.35;;;14.20;1.00;;;;;;4940065;28;20051;-92
2023/09/05 03:28:20;;;;;;;10.15;8.52;;;14.10;1.00;;;;;;4940852;28;20051;-92
2023/09/05 03:30:46;;;;;;;10.98;7.95;;;14.20;1.00;;;;;;4941153;28;20047;-92
2023/09/05 03:33:12;;;;;;;7.63;6.47;;;14.20;1.00;;;;;;4941129;28;20401;-92
2023/09/05 03:35:41;;;;;;;8.25;6.22;;;14.10;1.00;;;;;;4941009;28;20097;-92
2023/09/05 03:38:07;;;;;;;9.23;7.15;;;14.10;1.00;;;;;;4957978;28;20138;-91
2023/09/05 03:40:34;;;;;;;8.77;7.15;;;13.40;1.00;;;;;;4944166;28;20064;-92
2023/09/05 03:43:00;;;;;;;9.30;7.80;;;14.00;1.00;;;;;;4959487;28;20082;-92
2023/09/05 03:45:27;;;;;;;8.98;7.50;;;13.90;1.00;;;;;;4944806;28;20101;-91
2023/09/05 03:47:53;;;;;;;7.57;6.78;;;14.00;1.00;;;;;;4944413;28;20379;-92
2023/09/05 03:50:21;;;;;;;8.85;7.45;;;13.90;1.00;;;;;;4944114;28;20509;-91
2023/09/05 03:52:46;;;;;;;8.77;7.97;;;13.90;1.00;;;;;;4944052;28;20053;-91
2023/09/05 03:55:16;;;;;;;10.20;8.17;;;13.80;1.00;;;;;;4944019;28;20449;-91
2023/09/05 03:57:42;;;;;;;9.30;7.72;;;14.30;1.00;;;;;;4944029;28;20086;-91
2023/09/05 04:00:13;;;;;;;8.32;7.53;;;13.80;1.00;;;;;;4944372;28;20108;-92
2023/09/05 04:02:39;;;;;;;8.63;7.82;;;13.80;1.00;;;;;;4945534;28;20047;-92
2023/09/05 04:05:05;;;;;;;8.32;7.45;;;13.80;1.00;;;;;;4928831;28;20405;-91
2023/09/05 04:07:33;;;;;;;9.00;6.97;;;13.80;1.00;;;;;;4961040;28;20050;-91
2023/09/05 04:09:59;;;;;;;6.93;6.22;;;13.70;1.00;;;;;;4943444;28;20456;-91
2023/09/05 04:12:29;;;;;;;8.13;6.50;;;13.60;1.00;;;;;;4943731;28;20051;-91
2023/09/05 04:14:55;;;;;;;7.47;6.72;;;13.60;1.00;;;;;;4943725;28;20349;-91
2023/09/05 04:17:31;;;;;;;7.75;6.40;;;13.60;1.00;;;;;;4960981;28;20074;-91
2023/09/05 04:19:59;;;;;;;7.30;6.60;;;13.60;1.00;;;;;;4943817;28;20055;-91
2023/09/05 04:22:28;;;;;;;8.40;7.57;;;13.60;1.00;;;;;;4943675;28;20051;-91
2023/09/05 04:24:55;;;;;;;8.27;7.43;;;13.70;1.00;;;;;;4959121;28;20551;-91
2023/09/05 04:27:23;;;;;;;9.40;8.40;;;13.00;1.00;;;;;;4943408;28;20059;-91
2023/09/05 04:29:55;;;;;;;10.95;8.45;;;12.90;1.00;;;;;;4928474;28;20047;-91
2023/09/05 04:32:32;;;;;;;13.40;10.32;;;13.70;1.00;;;;;;4943609;28;20093;-91
2023/09/05 04:35:02;;;;;;;10.38;8.73;;;13.80;5.90;;;;;;4943061;28;20039;-91
2023/09/05 04:37:33;;;;;;;10.05;9.05;;;13.70;9.00;;;;;;4943748;28;20051;-91
2023/09/05 04:40:03;;;;;;;10.10;9.20;;;13.70;8.10;;;;;;4942708;28;20047;-91
2023/09/05 04:42:29;;;;;;;9.07;8.18;;;13.00;7.20;;;;;;4960055;28;20090;-91
2023/09/05 04:44:55;;;;;;;8.95;8.05;;;13.80;7.70;;;;;;4943914;28;20051;-93
2023/09/05 04:47:29;;;;;;;9.97;8.97;;;13.80;7.40;;;;;;4944207;28;20121;-91
2023/09/05 04:50:00;;;;;;;9.57;8.60;;;13.90;4.30;;;;;;4941974;28;20497;-91
2023/09/05 04:52:34;;;;;;;9.82;7.70;;;13.70;4.60;;;;;;4960157;28;20433;-91
2023/09/05 04:55:05;;;;;;;9.40;8.40;;;13.70;2.40;;;;;;4942391;28;20042;-91
2023/09/05 04:57:34;;;;;;;9.38;8.38;;;13.90;1.00;;;;;;4943725;28;20101;-91
2023/09/05 04:59:59;;;;;;;10.80;8.98;;;13.70;1.00;;;;;;4942948;28;20082;-91
2023/09/05 05:02:31;;;;;;;10.47;8.20;;;13.60;1.00;;;;;;4926870;28;20047;-91
2023/09/05 05:04:59;;;;;;;9.48;8.18;;;13.60;1.00;;;;;;4943133;28;20859;-93
2023/09/05 05:07:25;;;;;;;9.73;8.73;;;13.50;1.30;;;;;;4942561;28;20054;-91
2023/09/05 05:09:51;;;;;;;9.82;8.82;;;13.70;2.80;;;;;;4942681;28;20134;-91
2023/09/05 05:12:19;;;;;;;11.85;10.63;;;12.60;4.40;;;;;;4926687;28;20051;-91
2023/09/05 05:14:54;;;;;;;14.15;10.73;;;13.70;9.00;;;;;;4958547;28;20047;-91
2023/09/05 05:17:22;;;;;;;14.40;12.23;;;13.70;13.30;;;;;;4942338;28;20057;-91
2023/09/05 05:19:50;;;;;;;14.35;11.45;;;13.70;16.80;;;;;;4958961;28;20540;-92
2023/09/05 05:22:16;;;;;;;14.27;12.68;;;12.70;20.10;;;;;;4942132;28;20051;-92
2023/09/05 05:24:42;;;;;;;16.52;14.43;;;14.00;23.30;;;;;;4942610;28;20105;-91
2023/09/05 05:27:10;;;;;;;14.38;11.43;;;13.90;25.30;;;;;;4941717;28;20050;-91
2023/09/05 05:29:36;;;;;;;16.95;13.15;;;14.10;27.00;;;;;;4942248;28;20082;-92
2023/09/05 05:32:02;;;;;;;14.87;13.13;;;14.00;29.30;;;;;;4942041;28;20086;-91
2023/09/05 05:34:31;;;;;;;15.05;12.32;;;14.00;31.30;;;;;;4942364;28;20125;-91
2023/09/05 05:36:57;;;;;;;15.18;12.63;;;14.10;33.10;;;;;;4957964;28;20050;-91
2023/09/05 05:39:25;;;;;;;13.90;12.52;;;14.30;34.70;;;;;;4941844;28;20050;-91
2023/09/05 05:41:51;;;;;;;15.23;13.57;;;14.20;37.30;;;;;;4942380;28;20137;-91
2023/09/05 05:44:16;;;;;;;14.45;12.70;;;14.30;40.80;;;;;;4957559;28;20514;-91
2023/09/05 05:46:42;;;;;;;12.32;11.00;;;14.40;44.60;;;;;;4942162;28;20089;-91
2023/09/05 05:49:09;;;;;;;13.73;11.82;;;14.50;49.30;;;;;;4957309;28;20057;-90
2023/09/05 05:51:35;;;;;;;12.10;10.88;;;14.70;52.10;;;;;;4941951;28;20050;-91
2023/09/05 05:54:01;;;;;;;14.35;11.55;;;15.00;50.70;;;;;;4941948;28;20050;-91
2023/09/05 05:56:30;;;;;;;12.00;9.82;;;15.40;46.50;;;;;;4941090;28;20140;-91
2023/09/05 05:58:58;;;;;;;13.82;10.70;;;15.90;40.40;;;;;;4941740;28;20196;-91
2023/09/05 06:01:23;;;;;;;13.25;10.68;;;16.30;30.10;;;;;;4956518;28;20507;-91
2023/09/05 06:03:55;;;;;;;10.82;9.57;;;16.60;22.10;;;;;;4940681;28;20046;-91
2023/09/05 06:06:20;;;;;;;11.18;9.75;;;16.80;13.20;;;;;;4926017;28;20050;-91
2023/09/05 06:08:46;;;;;;;12.43;9.60;;;17.40;2.70;;;;;;4941396;28;20065;-91
2023/09/05 06:11:15;;;;;;;12.15;9.60;;;17.60;1.00;;;;;;4941007;28;20137;-91
2023/09/05 06:13:52;;;;;;;10.95;9.82;;;18.00;1.00;;;;;;4957682;28;20082;-91
2023/09/05 06:16:21;;;;;;;9.68;8.50;;;18.20;1.00;;;;;;4941214;28;20073;-91
2023/09/05 06:18:47;;;;;;;;;;;18.30;1.00;;;;;;4941910;28;20050;-91
2023/09/05 06:21:13;;;;;;;9.15;8.23;;;18.80;1.00;;;;;;4941258;28;19922;-91
2023/09/05 06:23:39;;;;;;;10.60;8.93;;;19.00;1.00;;;;;;4941468;28;20082;-90
2023/09/05 06:26:07;;;;;;;9.52;8.52;;;19.20;1.00;;;;;;4941650;28;20058;-91
2023/09/05 06:28:42;;;;;;;12.88;8.90;;;19.40;1.00;;;;;;4926264;28;20054;-91
2023/09/05 06:31:08;;;;;;;10.80;8.43;;;19.50;1.00;;;;;;4956890;28;20054;-93
2023/09/05 06:33:34;;;;;;;12.50;10.00;;;19.70;99.90;;;;;;4925193;28;20046;-92
2023/09/05 06:36:09;;;;;;;12.27;9.30;;;19.80;99.90;;;;;;4941126;28;20047;-92
2023/09/05 06:38:36;;;;;;;10.95;8.35;;;20.30;99.90;;;;;;4959032;28;20050;-91
2023/09/05 06:41:09;;;;;;;11.90;8.38;;;20.20;99.90;;;;;;4940738;28;20053;-92
2023/09/05 06:43:38;;;;;;;10.05;8.32;;;20.40;99.90;;;;;;4957596;28;20074;-91
2023/09/05 06:46:10;;;;;;;8.52;7.72;;;20.70;99.90;;;;;;4941038;28;20093;-92
2023/09/05 06:48:37;;;;;;;7.90;7.10;;;21.00;99.90;;;;;;4940974;28;20588;-91
2023/09/05 06:51:03;;;;;;;9.65;7.85;;;21.00;99.90;;;;;;4956963;28;20050;-91
2023/09/05 06:53:32;;;;;;;7.95;7.25;;;21.40;99.90;;;;;;4925184;28;20050;-92
2023/09/05 06:55:58;;;;;;;7.10;6.50;;;21.60;99.90;;;;;;4941365;28;20043;-92
2023/09/05 06:58:26;;;;;;;7.43;6.60;;;21.70;58.20;;;;;;4942891;28;20043;-91
2023/09/05 07:00:55;;;;;;;7.75;6.97;;;21.80;1.00;;;;;;4944648;28;20098;-91
2023/09/05 07:03:27;;;;;;;7.10;6.30;;;21.90;1.00;;;;;;4948527;28;20050;-89
2023/09/05 07:05:54;;;;;;;7.18;6.47;;;22.10;92.60;;;;;;4934343;28;20050;-90
2023/09/05 07:08:22;;;;;;;6.65;6.10;;;22.10;99.90;;;;;;4944490;28;20054;-92
2023/09/05 07:10:48;;;;;;;5.72;5.15;;;22.40;99.90;;;;;;4956804;28;20512;-92
2023/09/05 07:13:16;;;;;;;;;;;22.60;56.90;;;;;;4942191;28;20061;-92
2023/09/05 07:15:45;;;;;;;7.78;5.82;;;22.60;1.00;;;;;;4944939;28;19953;-93
2023/09/05 07:18:16;;;;;;;5.75;5.25;;;22.60;84.90;;;;;;4944636;28;20046;-93
2023/09/05 07:20:44;;;;;;;6.45;5.85;;;22.80;99.90;;;;;;4929279;28;20478;-92
2023/09/05 07:23:12;;;;;;;6.38;5.78;;;22.90;96.60;;;;;;4944835;28;20051;-92
2023/09/05 07:25:43;;;;;;;8.38;6.38;;;23.10;99.90;;;;;;4944316;28;20042;-92
2023/09/05 07:28:11;;;;;;;7.05;5.72;;;23.20;1.00;;;;;;4929538;28;20042;-91
2023/09/05 07:30:39;;;;;;;6.60;6.00;;;23.30;99.90;;;;;;4944194;28;20514;-92
2023/09/05 07:33:10;;;;;;;6.50;5.82;;;23.20;1.00;;;;;;4944694;28;20397;-92
2023/09/05 07:35:46;;;;;;;6.45;5.85;;;23.30;99.90;;;;;;4944398;28;20058;-93
2023/09/05 07:38:14;;;;;;;6.45;5.85;;;23.30;1.00;;;;;;4928858;28;20538;-92
2023/09/05 07:40:40;;;;;;;5.70;5.20;;;23.40;99.90;;;;;;4944353;28;20051;-92
2023/09/05 07:43:18;;;;;;;5.93;5.35;;;23.40;99.90;;;;;;4944655;28;20086;-93
2023/09/05 07:45:49;;;;;;;6.13;5.53;;;23.00;87.10;;;;;;4944539;28;20046;-92
2023/09/05 07:48:17;;;;;;;5.78;4.63;;;23.30;99.90;;;;;;4944462;28;20136;-92
2023/09/05 07:50:58;;;;;;;6.85;6.07;;;23.00;99.90;;;;;;4944137;28;20128;-92
2023/09/05 07:53:33;;;;;;;4.97;4.32;;;23.30;99.90;;;;;;4960006;28;20181;-93
2023/09/05 07:56:02;;;;;;;4.95;4.45;;;23.20;99.90;;;;;;4944162;28;20482;-93
2023/09/05 07:58:28;;;;;;;5.38;4.15;;;23.10;1.00;;;;;;4943513;28;20049;-93
2023/09/05 08:00:58;;;;;;;6.15;5.00;;;22.50;1.00;;;;;;4960042;28;20185;-92
2023/09/05 08:03:26;;;;;;;5.60;3.67;;;23.20;20.10;;;;;;4943668;28;20101;-92
2023/09/05 08:05:56;;;;;;;4.65;4.25;;;23.30;99.90;;;;;;4944268;28;20046;-92
2023/09/05 08:08:22;;;;;;;7.10;4.10;;;23.30;99.90;;;;;;4927322;28;20039;-93
2023/09/05 08:10:48;;;;;;;;;;;23.40;99.90;;;;;;4943794;28;20561;-92
2023/09/05 08:13:14;;;;;;;5.05;4.40;;;23.40;99.90;;;;;;4959858;28;20013;-92
2023/09/05 08:15:47;;;;;;;4.68;4.05;;;23.40;1.00;;;;;;4942796;28;20051;-93
2023/09/05 08:18:12;;;;;;;3.63;3.00;;;23.50;1.00;;;;;;4943711;28;20138;-92
2023/09/05 08:20:42;;;;;;;3.88;3.30;;;23.70;1.00;;;;;;4943825;28;20082;-92
2023/09/05 08:23:16;;;;;;;3.83;3.17;;;23.40;99.90;;;;;;4943956;28;20043;-92
2023/09/05 08:25:44;;;;;;;4.45;2.80;;;23.70;99.90;;;;;;4943298;28;20086;-92
2023/09/05 08:28:18;;;;;;;4.22;2.78;;;23.60;1.00;;;;;;4944399;28;20474;-92
2023/09/05 08:30:47;;;;;;;3.25;2.92;;;23.60;99.90;;;;;;4944005;28;20054;-93
2023/09/05 08:33:15;;;;;;;3.53;2.97;;;23.70;99.90;;;;;;4943010;28;20043;-93
2023/09/05 08:35:41;;;;;;;6.57;3.47;;;23.70;99.90;;;;;;4942830;28;20548;-92
2023/09/05 08:38:09;;;;;;;4.47;2.97;;;23.70;99.90;;;;;;4943624;28;20047;-93
2023/09/05 08:40:41;;;;;;;3.15;2.40;;;23.70;99.90;;;;;;4942888;28;20090;-92
2023/09/05 08:43:07;;;;;;;4.97;2.78;;;23.80;1.00;;;;;;4959382;28;20066;-93
2023/09/05 08:45:36;;;;;;;3.75;2.63;;;24.00;1.00;;;;;;4958870;28;20050;-93
2023/09/05 08:48:03;;;;;;;3.50;2.92;;;24.00;99.90;;;;;;4943592;28;20448;-93
2023/09/05 08:50:35;;;;;;;4.93;3.20;;;24.10;99.90;;;;;;4942876;28;20133;-92
2023/09/05 08:53:14;;;;;;;5.68;2.83;;;24.30;99.90;;;;;;4959467;28;20047;-92
2023/09/05 08:55:47;;;;;;;3.85;2.67;;;23.90;1.00;;;;;;4942769;28;20387;-93
2023/09/05 08:58:15;;;;;;;3.55;2.95;;;24.40;1.00;;;;;;4943890;28;20061;-94
2023/09/05 09:00:47;;;;;;;3.47;3.05;;;24.50;1.00;;;;;;4943613;28;20159;-93
2023/09/05 09:03:13;;;;;;;3.05;2.78;;;24.60;1.00;;;;;;4943846;28;20407;-93
2023/09/05 09:05:41;;;;;;;3.88;3.20;;;24.70;99.90;;;;;;4942554;28;20047;-93
2023/09/05 09:08:09;;;;;;;5.15;3.28;;;24.50;99.90;;;;;;4958213;28;20046;-93
2023/09/05 09:10:39;;;;;;;5.07;2.90;;;24.80;1.00;;;;;;4942104;28;20138;-93
2023/09/05 09:13:19;;;;;;;4.38;2.42;;;25.00;1.00;;;;;;4959128;28;20046;-93
2023/09/05 09:15:47;;;;;;;4.13;2.70;;;25.00;99.90;;;;;;4942662;28;20054;-92
2023/09/05 09:18:21;;;;;;;7.68;2.78;;;25.10;99.90;;;;;;4943061;28;20094;-93
2023/09/05 09:20:50;;;;;;;3.35;2.55;;;25.10;99.90;;;;;;4942782;28;20404;-93
2023/09/05 09:23:29;;;;;;;2.42;2.22;;;25.10;79.60;;;;;;4958921;28;20046;-92
2023/09/05 09:25:57;;;;;;;4.75;2.60;;;25.20;1.00;;;;;;4942217;28;20154;-93
2023/09/05 09:28:32;;;;;;;2.65;2.28;;;24.90;55.80;;;;;;4942643;28;20054;-94
2023/09/05 09:31:18;;;;;;;3.40;2.70;;;25.30;1.00;;;;;;4943010;28;20042;-93
2023/09/05 09:33:53;;;;;;;2.53;2.33;;;25.30;1.00;;;;;;4941900;28;20050;-94
2023/09/05 09:36:19;;;;;;;4.85;2.53;;;25.30;35.00;;;;;;4943813;28;20185;-93
2023/09/05 09:38:45;;;;;;;;;;;25.40;1.00;;;;;;4926493;28;20134;-93
2023/09/05 09:41:13;;;;;;;2.65;2.13;;;25.30;1.00;;;;;;4958558;28;19929;-93
2023/09/05 09:43:39;;;;;;;4.55;2.80;;;25.40;1.00;;;;;;4942420;28;20084;-91
2023/09/05 09:46:05;;;;;;;;;;;25.50;99.90;;;;;;4942875;28;20489;-94
2023/09/05 09:48:35;;;;;;;4.57;2.53;;;25.60;99.90;;;;;;4942414;28;19922;-92
2023/09/05 09:51:05;;;;;;;2.50;2.30;;;25.70;99.90;;;;;;4942891;28;20142;-93
2023/09/05 09:53:39;;;;;;;2.30;2.10;;;25.80;99.90;;;;;;4942328;28;20064;-94
2023/09/05 09:56:13;;;;;;;4.35;2.28;;;25.90;99.90;;;;;;4958272;28;20050;-93
2023/09/05 09:58:45;;;;;;;3.60;2.50;;;25.90;99.90;;;;;;4942466;28;20050;-93
2023/09/05 10:01:14;;;;;;;3.42;2.42;;;26.00;1.00;;;;;;4943216;28;20137;-93
2023/09/05 10:03:45;;;;;;;5.82;3.03;;;26.10;99.90;;;;;;4958445;28;20043;-95
2023/09/05 10:06:24;;;;;;;;;;;;;;;;;;;;;
2023/09/05 10:08:51;;;;;;;4.53;3.17;;;26.40;99.90;;;;;;4957543;28;20047;-93
2023/09/05 10:11:20;;;;;;;4.13;3.78;;;26.60;1.00;;;;;;4957310;28;20473;-93
2023/09/05 10:13:48;;;;;;;4.55;2.13;;;26.70;99.90;;;;;;4925644;28;20055;-92
2023/09/05 10:16:18;;;;;;;4.28;3.55;;;26.70;1.00;;;;;;4957463;28;20449;-93
2023/09/05 10:18:46;;;;;;;3.00;2.22;;;26.80;1.00;;;;;;4941931;28;20085;-93
2023/09/05 10:21:14;;;;;;;3.20;2.08;;;26.80;99.90;;;;;;4942520;28;20055;-93
2023/09/05 10:23:40;;;;;;;3.05;2.03;;;26.80;99.90;;;;;;4941525;28;20572;-94
2023/09/05 10:26:07;;;;;;;4.60;2.35;;;26.90;99.90;;;;;;4941897;28;20113;-94
2023/09/05 10:28:36;;;;;;;2.83;2.25;;;27.00;99.90;;;;;;4941468;28;20497;-93
2023/09/05 10:31:15;;;;;;;3.15;2.30;;;27.10;80.20;;;;;;4957631;28;20046;-94
2023/09/05 10:33:46;;;;;;;2.15;1.95;;;27.10;1.00;;;;;;4941032;28;20582;-93
2023/09/05 10:36:48;;;;;;;1.92;1.70;;;27.20;1.00;;;;;;4957490;28;20050;-93
2023/09/05 10:39:27;;;;;;;2.45;2.13;;;27.20;1.00;;;;;;4925956;28;20497;-94
2023/09/05 10:41:53;;;;;;;2.05;1.80;;;27.30;1.00;;;;;;4941271;28;20134;-94
2023/09/05 10:44:21;;;;;;;;;;;27.40;99.90;;;;;;4942408;28;20078;-93
2023/09/05 10:46:56;;;;;;;3.33;1.70;;;27.40;99.90;;;;;;4941342;28;19977;-93
2023/09/05 10:49:22;;;;;;;3.08;1.83;;;27.50;99.90;;;;;;4929963;28;20069;-93
2023/09/05 10:52:07;;;;;;;;;;;27.50;99.90;;;;;;4961420;28;20490;-93
2023/09/05 10:54:49;;;;;;;1.80;1.60;;;27.70;99.90;;;;;;4945057;28;19922;-95
2023/09/05 10:57:42;;;;;;;1.92;1.52;;;27.80;99.90;;;;;;4945727;28;20089;-93
2023/09/05 11:00:20;;;;;;;2.10;1.90;;;27.90;99.90;;;;;;4945496;28;20047;-91
2023/09/05 11:02:53;;;;;;;2.05;1.52;;;27.90;99.90;;;;;;4960932;28;20055;-93
2023/09/05 11:05:20;;;;;;;2.00;1.73;;;28.00;99.90;;;;;;4945417;28;20043;-94
2023/09/05 11:07:50;;;;;;;1.75;1.65;;;28.10;99.90;;;;;;4945141;28;20051;-95
2023/09/05 11:10:29;;;;;;;1.85;1.75;;;28.20;99.90;;;;;;4945458;28;20058;-94
2023/09/05 11:12:58;;;;;;;2.10;1.20;;;28.20;99.90;;;;;;4954466;28;20066;-93
2023/09/05 11:15:38;;;;;;;3.80;1.80;;;28.40;99.90;;;;;;4968713;28;20030;-94
2023/09/05 11:18:09;;;;;;;2.70;1.58;;;28.40;99.90;;;;;;4968656;28;20035;-94
2023/09/05 11:20:51;;;;;;;2.53;1.48;;;28.40;99.90;;;;;;4969724;28;20066;-94
2023/09/05 11:23:30;;;;;;;3.40;1.65;;;28.40;99.90;;;;;;4984689;28;20047;-95
2023/09/05 11:26:03;;;;;;;1.60;1.50;;;27.60;99.90;;;;;;4928417;28;20051;-96
2023/09/05 11:28:32;;;;;;;1.98;1.88;;;28.50;99.90;;;;;;4945293;28;20051;-94
2023/09/05 11:31:04;;;;;;;1.55;1.42;;;28.60;99.90;;;;;;4944774;28;20379;-95
2023/09/05 11:33:31;;;;;;;1.77;1.58;;;28.80;99.90;;;;;;4945253;28;20442;-94
2023/09/05 11:35:57;;;;;;;1.58;1.48;;;28.90;99.90;;;;;;4960381;28;20130;-95
2023/09/05 11:38:28;;;;;;;2.50;1.60;;;29.10;99.90;;;;;;4944971;28;20163;-96
2023/09/05 11:40:59;;;;;;;1.67;1.58;;;29.60;99.90;;;;;;4960995;28;20459;-96
2023/09/05 11:43:25;;;;;;;2.35;1.73;;;29.00;99.90;;;;;;4929733;28;20104;-95
2023/09/05 11:45:57;;;;;;;2.42;1.60;;;29.10;99.90;;;;;;4944315;28;20129;-95
2023/09/05 11:48:26;;;;;;;3.45;1.95;;;29.10;99.90;;;;;;4929251;28;20047;-95
2023/09/05 11:50:55;;;;;;;2.00;1.60;;;29.10;99.90;;;;;;4944376;28;20047;-95
2023/09/05 11:53:24;;;;;;;1.73;1.60;;;29.20;99.90;;;;;;4944933;28;20205;-96
2023/09/05 11:55:50;;;;;;;2.05;1.23;;;29.30;99.90;;;;;;4944118;28;20050;-96
2023/09/05 11:58:19;;;;;;;1.95;1.48;;;29.50;99.90;;;;;;4944609;28;20086;-95
2023/09/05 12:00:45;;;;;;;2.03;1.58;;;29.50;99.90;;;;;;4943670;28;20182;-94
2023/09/05 12:03:15;;;;;;;1.25;1.13;;;29.60;99.90;;;;;;4944241;28;20505;-95
2023/09/05 12:05:44;;;;;;;3.90;1.50;;;29.70;99.90;;;;;;4960558;28;20051;-95
2023/09/05 12:08:13;;;;;;;2.28;1.20;;;28.90;99.90;;;;;;4944049;28;20133;-94
2023/09/05 12:10:52;;;;;;;1.65;1.52;;;29.70;99.90;;;;;;4959840;28;20593;-93
2023/09/05 12:13:47;;;;;;;3.35;1.45;;;29.80;99.90;;;;;;4944127;28;20065;-95
2023/09/05 12:16:19;;;;;;;2.72;1.58;;;29.20;99.90;;;;;;4943681;28;20054;-95
2023/09/05 12:18:48;;;;;;;2.78;1.58;;;29.80;99.90;;;;;;4944489;28;20051;-94
2023/09/05 12:21:17;;;;;;;1.60;1.23;;;29.90;99.90;;;;;;4943800;28;20050;-94
2023/09/05 12:23:42;;;;;;;2.85;1.58;;;30.10;99.90;;;;;;4960025;28;20097;-94
2023/09/05 12:26:08;;;;;;;2.63;1.60;;;30.20;99.90;;;;;;4943963;28;20050;-94
2023/09/05 12:28:35;;;;;;;1.40;1.30;;;30.20;99.90;;;;;;4943891;28;20055;-94
2023/09/05 12:31:15;;;;;;;2.03;1.70;;;30.20;99.90;;;;;;4943562;28;20161;-94
2023/09/05 12:33:44;;;;;;;2.67;1.48;;;30.20;99.90;;;;;;4929643;28;20051;-93
2023/09/05 12:36:10;;;;;;;1.60;1.20;;;30.30;99.90;;;;;;4943068;28;20448;-94
2023/09/05 12:38:36;;;;;;;3.90;1.60;;;30.20;99.90;;;;;;4943441;28;20050;-94
2023/09/05 12:41:07;;;;;;;4.30;1.60;;;30.60;99.90;;;;;;4958588;28;20047;-93
2023/09/05 12:43:36;;;;;;;3.92;1.38;;;30.60;99.90;;;;;;4943683;28;20046;-93
2023/09/05 12:46:03;;;;;;;1.65;1.52;;;30.70;99.90;;;;;;4944035;28;20065;-94
2023/09/05 12:48:29;;;;;;;3.58;1.80;;;30.80;99.90;;;;;;4929414;28;20105;-92
2023/09/05 12:50:55;;;;;;;1.48;1.38;;;30.90;99.90;;;;;;4928941;28;20050;-93
2023/09/05 12:53:21;;;;;;;1.50;1.23;;;30.90;99.90;;;;;;4943420;28;20074;-92
2023/09/05 12:55:51;;;;;;;4.05;1.63;;;31.00;99.90;;;;;;4945363;28;20051;-92
2023/09/05 12:58:20;;;;;;;4.82;1.60;;;31.00;99.90;;;;;;4928173;28;20050;-92
2023/09/05 13:00:51;;;;;;;2.28;1.50;;;30.70;99.90;;;;;;4944384;28;20201;-93
2023/09/05 13:03:19;;;;;;;3.53;1.48;;;31.10;99.90;;;;;;4960545;28;20047;-94
2023/09/05 13:05:45;;;;;;;2.08;1.48;;;31.70;99.90;;;;;;4927680;28;20043;-94